Terminal Aerodrome Forecast
Issued by NWS

Home | Current Version | Previous Version | Text Only | Print | Product List | Glossary Off
Versions: 1 2 3 4 5 6 7 8 9 10 11 12 13 14 15

558
FTUS43 KICT 211137 AAA
TAFRSL
TAF AMD
KRSL 211137Z 2112/2212 19012KT P6SM SCT200
     FM211400 19015G22KT P6SM SCT250
     FM211900 19022G32KT P6SM FEW070 FEW200
     FM220000 18018G25KT P6SM VCTS SCT070CB BKN250
     FM220300 18015KT P6SM VCTS SCT070CB BKN200
     FM220600 18012KT P6SM BKN200=

USA.gov is the U.S. government's official web portal to all federal, state and local government web resources and services.